Time;durP1;ratioP1;P1;durP2;ratioP2;P2;SDS_P1;SDS_P2;PMS_P1;PMS_P2;Temp;Humidity;BMP_temperature;BMP_pressure;BME280_temperature;BME280_humidity;BME280_pressure;Samples;Min_cycle;Max_cycle;Signal;HPM_P1;HPM_P2
2022/11/02 00:02:19;;;;;;;10.20;2.17;;;;;;;;;;5069940;28;20044;-66
2022/11/02 00:04:45;;;;;;;10.10;2.75;;;;;;;;;;5070291;28;20048;-66
2022/11/02 00:07:11;;;;;;;8.68;1.70;;;;;;;;;;5070205;28;20089;-66
2022/11/02 00:09:37;;;;;;;8.30;1.58;;;;;;;;;;5069947;28;20044;-66
2022/11/02 00:12:03;;;;;;;10.23;2.35;;;;;;;;;;5070290;28;20048;-66
2022/11/02 00:14:29;;;;;;;11.07;1.63;;;;;;;;;;5070268;28;20068;-66
2022/11/02 00:16:55;;;;;;;10.90;2.00;;;;;;;;;;5070172;28;20037;-66
2022/11/02 00:19:21;;;;;;;11.02;1.73;;;;;;;;;;5070359;28;20090;-66
2022/11/02 00:21:47;;;;;;;6.10;1.25;;;;;;;;;;5070261;28;20041;-66
2022/11/02 00:24:13;;;;;;;6.60;1.50;;;;;;;;;;5069188;28;20137;-66
2022/11/02 00:26:39;;;;;;;6.05;1.23;;;;;;;;;;5070092;28;20043;-66
2022/11/02 00:29:05;;;;;;;10.35;1.42;;;;;;;;;;5070296;28;20083;-66
2022/11/02 00:31:31;;;;;;;8.30;1.35;;;;;;;;;;5069934;28;20057;-66
2022/11/02 00:33:57;;;;;;;5.32;1.23;;;;;;;;;;5069966;28;20158;-66
2022/11/02 00:36:24;;;;;;;9.73;1.27;;;;;;;;;;5070404;28;20150;-66
2022/11/02 00:38:50;;;;;;;11.63;1.40;;;;;;;;;;5070008;28;20041;-66
2022/11/02 00:41:20;;;;;;;7.63;1.52;;;;;;;;;;5069781;28;20040;-66
2022/11/02 00:43:46;;;;;;;4.88;1.30;;;;;;;;;;5070398;28;20600;-66
2022/11/02 00:46:12;;;;;;;13.05;1.85;;;;;;;;;;5070574;28;20440;-66
2022/11/02 00:48:38;;;;;;;6.85;1.55;;;;;;;;;;5073808;28;20097;-66
2022/11/02 00:51:04;;;;;;;13.07;1.90;;;;;;;;;;5073932;28;20125;-66
2022/11/02 00:53:30;;;;;;;5.90;1.60;;;;;;;;;;5074007;28;20048;-66
2022/11/02 00:55:56;;;;;;;8.25;1.30;;;;;;;;;;5073437;28;20032;-66
2022/11/02 00:58:22;;;;;;;7.22;1.27;;;;;;;;;;5073966;28;20044;-66
2022/11/02 01:00:48;;;;;;;6.22;1.17;;;;;;;;;;5073741;28;20439;-66
2022/11/02 01:03:14;;;;;;;10.00;1.58;;;;;;;;;;5105954;28;20064;-66
2022/11/02 01:05:40;;;;;;;6.70;1.58;;;;;;;;;;5073758;28;20040;-66
2022/11/02 01:08:06;;;;;;;6.10;1.50;;;;;;;;;;5073706;28;20040;-66
2022/11/02 01:10:33;;;;;;;5.22;1.60;;;;;;;;;;5073149;28;20037;-66
2022/11/02 01:13:00;;;;;;;4.88;1.60;;;;;;;;;;5073304;28;20052;-66
2022/11/02 01:15:26;;;;;;;5.70;1.40;;;;;;;;;;5073313;28;20040;-66
2022/11/02 01:17:52;;;;;;;8.13;1.63;;;;;;;;;;5072804;28;20044;-66
2022/11/02 01:20:18;;;;;;;7.57;1.55;;;;;;;;;;5073407;28;20048;-66
2022/11/02 01:22:44;;;;;;;14.02;2.67;;;;;;;;;;5073487;28;20032;-66
2022/11/02 01:25:10;;;;;;;13.65;2.10;;;;;;;;;;5072963;28;20083;-66
2022/11/02 01:27:36;;;;;;;11.68;2.10;;;;;;;;;;5073460;28;20068;-66
2022/11/02 01:30:03;;;;;;;9.68;1.63;;;;;;;;;;5073253;28;20548;-66
2022/11/02 01:32:29;;;;;;;6.53;1.65;;;;;;;;;;5072795;28;20088;-66
2022/11/02 01:34:55;;;;;;;9.20;2.03;;;;;;;;;;5072946;28;20559;-66
2022/11/02 01:37:21;;;;;;;12.98;2.35;;;;;;;;;;5072930;28;20091;-66
2022/11/02 01:39:47;;;;;;;11.88;2.20;;;;;;;;;;5072635;28;20040;-66
2022/11/02 01:42:21;;;;;;;9.95;2.10;;;;;;;;;;5072938;28;20044;-66
2022/11/02 01:44:48;;;;;;;13.07;2.28;;;;;;;;;;5073097;28;20435;-66
2022/11/02 01:47:18;;;;;;;10.63;2.33;;;;;;;;;;5072670;28;20077;-66
2022/11/02 01:49:45;;;;;;;9.20;2.20;;;;;;;;;;5072549;28;20045;-66
2022/11/02 01:52:14;;;;;;;7.65;2.00;;;;;;;;;;5071135;28;20086;-66
2022/11/02 01:54:43;;;;;;;6.85;2.05;;;;;;;;;;5072551;28;20097;-66
2022/11/02 01:57:10;;;;;;;14.50;3.03;;;;;;;;;;5072746;28;20093;-66
2022/11/02 01:59:40;;;;;;;14.55;2.53;;;;;;;;;;5072356;28;20040;-66
2022/11/02 02:02:11;;;;;;;8.73;2.20;;;;;;;;;;5104629;28;20164;-66
2022/11/02 02:04:37;;;;;;;10.88;2.88;;;;;;;;;;5072599;28;20044;-66
2022/11/02 02:07:03;;;;;;;11.65;2.53;;;;;;;;;;5072482;28;20093;-66
2022/11/02 02:09:29;;;;;;;13.05;2.35;;;;;;;;;;5072283;28;20470;-66
2022/11/02 02:11:55;;;;;;;14.98;3.03;;;;;;;;;;5072525;28;20080;-66
2022/11/02 02:14:22;;;;;;;16.50;2.67;;;;;;;;;;5072117;28;20055;-66
2022/11/02 02:16:59;;;;;;;17.17;3.08;;;;;;;;;;5072202;28;20483;-66
2022/11/02 02:19:43;;;;;;;13.32;2.53;;;;;;;;;;5072249;28;20077;-66
2022/11/02 02:22:09;;;;;;;10.13;2.42;;;;;;;;;;5072445;28;20044;-66
2022/11/02 02:24:35;;;;;;;16.70;2.78;;;;;;;;;;5071793;28;20392;-66
2022/11/02 02:27:07;;;;;;;9.18;2.80;;;;;;;;;;5072156;28;20582;-66
2022/11/02 02:29:33;;;;;;;16.48;3.08;;;;;;;;;;5072178;28;20044;-66
2022/11/02 02:32:26;;;;;;;8.02;2.05;;;;;;;;;;5071768;28;20040;-66
2022/11/02 02:35:15;;;;;;;10.45;2.08;;;;;;;;;;5070644;28;20048;-66
2022/11/02 02:37:47;;;;;;;11.20;1.80;;;;;;;;;;5070881;28;20048;-66
2022/11/02 02:40:18;;;;;;;7.50;1.80;;;;;;;;;;5071874;28;20569;-66
2022/11/02 02:42:56;;;;;;;3.03;1.38;;;;;;;;;;5071893;28;20055;-66
2022/11/02 02:45:39;;;;;;;7.07;1.80;;;;;;;;;;5071538;28;20147;-66
2022/11/02 02:48:09;;;;;;;5.85;1.10;;;;;;;;;;5071792;28;20036;-66
2022/11/02 02:50:38;;;;;;;6.10;1.60;;;;;;;;;;5071607;28;20120;-66
2022/11/02 02:53:06;;;;;;;7.00;1.35;;;;;;;;;;5070883;28;20121;-66
2022/11/02 02:55:35;;;;;;;4.80;1.05;;;;;;;;;;5071588;28;20033;-66
2022/11/02 02:58:02;;;;;;;7.13;1.45;;;;;;;;;;5070335;28;20040;-66
2022/11/02 03:00:29;;;;;;;7.65;1.65;;;;;;;;;;5070922;28;20085;-66
2022/11/02 03:03:02;;;;;;;11.18;1.60;;;;;;;;;;5071468;28;20086;-66
2022/11/02 03:05:32;;;;;;;6.15;1.50;;;;;;;;;;5071367;28;20143;-66
2022/11/02 03:08:10;;;;;;;6.10;1.30;;;;;;;;;;5070762;28;20245;-66
2022/11/02 03:10:44;;;;;;;9.05;1.50;;;;;;;;;;5070743;28;20036;-66
2022/11/02 03:13:33;;;;;;;6.07;1.10;;;;;;;;;;5071085;28;20101;-66
2022/11/02 03:16:19;;;;;;;8.77;1.05;;;;;;;;;;5070554;28;20040;-66
2022/11/02 03:18:52;;;;;;;8.55;1.30;;;;;;;;;;5059640;28;20080;-66
2022/11/02 03:21:21;;;;;;;13.45;2.33;;;;;;;;;;5070875;28;20096;-66
2022/11/02 03:23:52;;;;;;;11.82;1.85;;;;;;;;;;5070617;28;20089;-66
2022/11/02 03:26:22;;;;;;;6.38;1.60;;;;;;;;;;5071081;28;20052;-66
2022/11/02 03:28:48;;;;;;;6.05;1.25;;;;;;;;;;5071045;28;20040;-66
2022/11/02 03:31:20;;;;;;;5.30;1.08;;;;;;;;;;5070506;28;20036;-66
2022/11/02 03:33:55;;;;;;;6.47;0.98;;;;;;;;;;5070933;28;20044;-66
2022/11/02 03:36:25;;;;;;;4.50;0.95;;;;;;;;;;5070862;28;20092;-66
2022/11/02 03:39:04;;;;;;;6.45;1.17;;;;;;;;;;5070591;28;20037;-66
2022/11/02 03:41:30;;;;;;;6.45;1.20;;;;;;;;;;5071198;28;20483;-66
2022/11/02 03:44:02;;;;;;;5.07;0.70;;;;;;;;;;5070993;28;20456;-66
2022/11/02 03:46:29;;;;;;;11.23;1.35;;;;;;;;;;5070822;28;20052;-66
2022/11/02 03:48:55;;;;;;;10.27;1.30;;;;;;;;;;5070821;28;20033;-66
2022/11/02 03:51:23;;;;;;;7.60;0.85;;;;;;;;;;5070758;28;20052;-66
2022/11/02 03:53:58;;;;;;;9.48;1.00;;;;;;;;;;5070299;28;20093;-66
2022/11/02 03:56:33;;;;;;;9.20;1.10;;;;;;;;;;5070762;28;20036;-66
2022/11/02 03:58:59;;;;;;;5.22;0.82;;;;;;;;;;5070214;28;20041;-66
2022/11/02 04:01:26;;;;;;;6.95;1.10;;;;;;;;;;5070668;28;20375;-66
2022/11/02 04:03:52;;;;;;;3.35;0.90;;;;;;;;;;5070712;28;20036;-66
2022/11/02 04:06:18;;;;;;;6.22;1.30;;;;;;;;;;5070431;28;20067;-66
2022/11/02 04:08:46;;;;;;;5.15;1.17;;;;;;;;;;5070588;28;20041;-66
2022/11/02 04:16:42;;;;;;;7.30;1.25;;;;;;;;;;5070588;28;20044;-66
2022/11/02 04:19:27;;;;;;;5.43;1.08;;;;;;;;;;5070448;28;20047;-66
2022/11/02 04:27:24;;;;;;;8.02;1.27;;;;;;;;;;5054428;28;20045;-66
2022/11/02 04:29:50;;;;;;;7.38;1.40;;;;;;;;;;5054007;28;20048;-66
2022/11/02 04:33:31;;;;;;;7.35;1.98;;;;;;;;;;5066956;28;20478;-66
2022/11/02 04:35:03;;;;;;;9.38;1.85;;;;;;;;;;5073923;28;20037;-66
2022/11/02 04:40:14;;;;;;;4.28;1.27;;;;;;;;;;5074141;28;20127;-66
2022/11/02 04:42:40;;;;;;;10.20;1.48;;;;;;;;;;5074296;28;20052;-66
2022/11/02 04:45:07;;;;;;;6.78;1.42;;;;;;;;;;5073873;28;20044;-66
2022/11/02 04:47:33;;;;;;;8.32;1.67;;;;;;;;;;5074145;28;20115;-66
2022/11/02 04:49:59;;;;;;;5.47;1.48;;;;;;;;;;5073928;28;20127;-66
2022/11/02 04:52:25;;;;;;;10.05;2.35;;;;;;;;;;5073523;28;20071;-66
2022/11/02 04:54:51;;;;;;;9.32;1.50;;;;;;;;;;5073955;28;20040;-66
2022/11/02 04:57:17;;;;;;;8.05;1.60;;;;;;;;;;5073993;28;20037;-66
2022/11/02 04:59:43;;;;;;;7.95;1.35;;;;;;;;;;5073225;28;20424;-66
2022/11/02 05:02:09;;;;;;;10.75;1.67;;;;;;;;;;5073964;28;20040;-66
2022/11/02 05:04:35;;;;;;;7.60;1.60;;;;;;;;;;5073768;28;20071;-66
2022/11/02 05:07:05;;;;;;;11.15;2.17;;;;;;;;;;5071672;28;20045;-66
2022/11/02 05:09:31;;;;;;;9.32;1.67;;;;;;;;;;5073599;28;20056;-66
2022/11/02 05:11:57;;;;;;;9.10;1.77;;;;;;;;;;5073627;28;20047;-66
2022/11/02 05:14:23;;;;;;;8.93;1.83;;;;;;;;;;5072871;28;20186;-66
2022/11/02 05:16:49;;;;;;;9.50;1.88;;;;;;;;;;5073807;28;20112;-66
2022/11/02 05:19:15;;;;;;;9.55;1.85;;;;;;;;;;5073384;28;20036;-66
2022/11/02 05:21:41;;;;;;;10.07;1.95;;;;;;;;;;5073134;28;20821;-66
2022/11/02 05:24:07;;;;;;;6.90;1.45;;;;;;;;;;5073588;28;20313;-66
2022/11/02 05:26:33;;;;;;;9.00;1.77;;;;;;;;;;5073329;28;20040;-66
2022/11/02 05:28:59;;;;;;;12.27;1.90;;;;;;;;;;5073129;28;20439;-66
2022/11/02 05:31:25;;;;;;;11.23;1.73;;;;;;;;;;5073227;28;20044;-66
2022/11/02 05:33:51;;;;;;;9.75;1.80;;;;;;;;;;5072788;28;20040;-66
2022/11/02 05:36:17;;;;;;;8.32;1.90;;;;;;;;;;5072634;28;20063;-66
2022/11/02 05:38:43;;;;;;;11.25;2.42;;;;;;;;;;5073142;28;20475;-66
2022/11/02 05:41:09;;;;;;;14.25;2.03;;;;;;;;;;5072975;28;20032;-66
2022/11/02 05:43:35;;;;;;;8.77;1.77;;;;;;;;;;5072543;28;20083;-66
2022/11/02 05:46:02;;;;;;;10.40;1.98;;;;;;;;;;5072975;28;20144;-66
2022/11/02 05:48:30;;;;;;;6.03;2.00;;;;;;;;;;5073016;28;20360;-66
2022/11/02 05:50:56;;;;;;;12.90;2.38;;;;;;;;;;5072264;28;20044;-66
2022/11/02 05:53:23;;;;;;;8.90;2.10;;;;;;;;;;5073017;28;20040;-66
2022/11/02 05:55:49;;;;;;;10.50;2.17;;;;;;;;;;5072846;28;20413;-66
2022/11/02 05:58:15;;;;;;;14.07;2.38;;;;;;;;;;5072342;28;20028;-66
2022/11/02 06:00:41;;;;;;;11.23;2.47;;;;;;;;;;5072653;28;20520;-66
2022/11/02 06:03:07;;;;;;;12.82;2.95;;;;;;;;;;5072851;28;20041;-66
2022/11/02 06:05:33;;;;;;;12.18;2.47;;;;;;;;;;5072252;28;20040;-66
2022/11/02 06:08:00;;;;;;;17.15;2.67;;;;;;;;;;5072344;28;20041;-66
2022/11/02 06:10:27;;;;;;;13.98;2.67;;;;;;;;;;5072439;28;20043;-66
2022/11/02 06:12:56;;;;;;;18.67;2.58;;;;;;;;;;5071803;28;20392;-66
2022/11/02 06:15:23;;;;;;;11.18;2.50;;;;;;;;;;5072408;28;20048;-66
2022/11/02 06:17:50;;;;;;;15.60;3.00;;;;;;;;;;5072236;28;20044;-66
2022/11/02 06:20:16;;;;;;;10.25;2.53;;;;;;;;;;5071536;28;20041;-66
2022/11/02 06:22:43;;;;;;;18.55;2.83;;;;;;;;;;5072404;28;20123;-66
2022/11/02 06:25:09;;;;;;;13.57;2.80;;;;;;;;;;5072262;28;20040;-66
2022/11/02 06:27:35;;;;;;;11.88;2.25;;;;;;;;;;5071817;28;20047;-66
2022/11/02 06:30:01;;;;;;;14.88;3.22;;;;;;;;;;5072115;28;20107;-66
2022/11/02 06:32:28;;;;;;;15.60;2.42;;;;;;;;;;5071995;28;20363;-66
2022/11/02 06:34:54;;;;;;;13.18;2.80;;;;;;;;;;5104147;28;20040;-66
2022/11/02 06:37:21;;;;;;;21.08;3.40;;;;;;;;;;5071969;28;20044;-66
2022/11/02 06:39:47;;;;;;;16.55;3.13;;;;;;;;;;5071872;28;20052;-66
2022/11/02 06:42:13;;;;;;;12.25;2.40;;;;;;;;;;5071265;28;20047;-66
2022/11/02 06:44:39;;;;;;;15.63;3.17;;;;;;;;;;5070850;28;20036;-66
2022/11/02 06:47:05;;;;;;;13.85;2.30;;;;;;;;;;5071729;28;20044;-66
2022/11/02 06:49:31;;;;;;;15.13;2.67;;;;;;;;;;5071277;28;20460;-66
2022/11/02 06:51:57;;;;;;;15.15;2.50;;;;;;;;;;5071710;28;20041;-66
2022/11/02 06:54:23;;;;;;;15.25;2.65;;;;;;;;;;5071730;28;20058;-66
2022/11/02 06:56:49;;;;;;;9.07;2.33;;;;;;;;;;5071247;28;20115;-66
2022/11/02 06:59:16;;;;;;;14.55;3.38;;;;;;;;;;5071453;28;20048;-66
2022/11/02 07:01:42;;;;;;;19.27;2.50;;;;;;;;;;5071401;28;20040;-66
2022/11/02 07:04:08;;;;;;;12.95;2.22;;;;;;;;;;5071227;28;20047;-66
2022/11/02 07:06:34;;;;;;;16.88;2.53;;;;;;;;;;5071287;28;20044;-66
2022/11/02 07:09:00;;;;;;;15.98;4.00;;;;;;;;;;5053120;28;20128;-66
2022/11/02 07:11:26;;;;;;;17.60;3.45;;;;;;;;;;5070892;28;20115;-66
2022/11/02 07:13:52;;;;;;;20.48;2.40;;;;;;;;;;5070601;28;20053;-66
2022/11/02 07:16:18;;;;;;;14.05;2.38;;;;;;;;;;5071035;28;20098;-66
2022/11/02 07:18:44;;;;;;;16.10;2.35;;;;;;;;;;5071074;28;20371;-66
2022/11/02 07:21:10;;;;;;;13.85;2.40;;;;;;;;;;5070888;28;20051;-66
2022/11/02 07:23:36;;;;;;;18.92;2.80;;;;;;;;;;5071028;28;20085;-66
2022/11/02 07:26:03;;;;;;;19.17;2.88;;;;;;;;;;5070818;28;20047;-66
2022/11/02 07:28:30;;;;;;;18.02;2.58;;;;;;;;;;5070586;28;20042;-66
2022/11/02 07:30:56;;;;;;;22.92;3.08;;;;;;;;;;5070910;28;20048;-66
2022/11/02 07:33:22;;;;;;;13.85;2.42;;;;;;;;;;5071098;28;20041;-66
2022/11/02 07:35:48;;;;;;;13.82;2.50;;;;;;;;;;5070540;28;20040;-66
2022/11/02 07:38:14;;;;;;;11.60;1.95;;;;;;;;;;5070928;28;20043;-66
2022/11/02 07:40:40;;;;;;;16.83;2.45;;;;;;;;;;5070530;28;20037;-66
2022/11/02 07:43:06;;;;;;;10.40;1.80;;;;;;;;;;5070491;28;20445;-66
2022/11/02 07:45:32;;;;;;;9.55;2.17;;;;;;;;;;5070914;28;20051;-66
2022/11/02 07:47:58;;;;;;;11.35;2.05;;;;;;;;;;5070880;28;20534;-66
2022/11/02 07:50:28;;;;;;;9.27;1.90;;;;;;;;;;5069894;28;20080;-66
2022/11/02 07:52:55;;;;;;;13.38;2.22;;;;;;;;;;5070639;28;20123;-66
2022/11/02 07:55:25;;;;;;;17.33;3.00;;;;;;;;;;5059324;28;20690;-65
2022/11/02 07:57:54;;;;;;;13.45;2.30;;;;;;;;;;5066883;28;20037;-65
2022/11/02 08:00:20;;;;;;;12.68;2.38;;;;;;;;;;5069647;28;20044;-65
2022/11/02 08:02:46;;;;;;;15.63;2.83;;;;;;;;;;5069260;28;20045;-65
2022/11/02 08:05:12;;;;;;;16.30;2.88;;;;;;;;;;5069399;28;20044;-65
2022/11/02 08:07:38;;;;;;;8.25;2.08;;;;;;;;;;5069533;28;20040;-65
2022/11/02 08:10:04;;;;;;;15.73;2.40;;;;;;;;;;5069281;28;20055;-65
2022/11/02 08:12:30;;;;;;;17.70;3.05;;;;;;;;;;5069123;28;20095;-65
2022/11/02 08:14:57;;;;;;;15.60;3.00;;;;;;;;;;5069194;28;20044;-65
2022/11/02 08:17:23;;;;;;;7.70;1.70;;;;;;;;;;5069448;28;20106;-65
2022/11/02 08:19:49;;;;;;;15.50;2.72;;;;;;;;;;5067390;28;20037;-65
2022/11/02 08:22:15;;;;;;;9.23;2.38;;;;;;;;;;5070095;28;20036;-65
2022/11/02 08:24:41;;;;;;;15.20;2.90;;;;;;;;;;5068126;28;20056;-65
2022/11/02 08:27:07;;;;;;;14.13;2.15;;;;;;;;;;5065015;28;20046;-65
2022/11/02 08:29:34;;;;;;;11.18;2.85;;;;;;;;;;5067580;28;20040;-65
2022/11/02 08:32:00;;;;;;;14.35;2.05;;;;;;;;;;5069535;28;20076;-65
2022/11/02 08:34:26;;;;;;;15.07;2.42;;;;;;;;;;5068829;28;20532;-65
2022/11/02 08:36:52;;;;;;;15.32;2.92;;;;;;;;;;5068395;28;20483;-66
2022/11/02 08:39:18;;;;;;;11.60;1.65;;;;;;;;;;5069598;28;20040;-64
2022/11/02 08:41:44;;;;;;;13.00;2.00;;;;;;;;;;5068912;28;20044;-64
2022/11/02 08:44:10;;;;;;;10.35;1.58;;;;;;;;;;5069403;28;20047;-64
2022/11/02 08:46:36;;;;;;;12.20;1.70;;;;;;;;;;5068697;28;20049;-66
2022/11/02 08:49:02;;;;;;;14.20;2.03;;;;;;;;;;5069078;28;20036;-65
2022/11/02 08:51:28;;;;;;;14.23;2.00;;;;;;;;;;5069583;28;20042;-65
2022/11/02 08:53:54;;;;;;;10.05;1.77;;;;;;;;;;5069694;28;20044;-65
2022/11/02 08:56:20;;;;;;;8.18;1.70;;;;;;;;;;5067607;28;20063;-65
2022/11/02 08:58:46;;;;;;;12.95;1.67;;;;;;;;;;5069203;28;20032;-65
2022/11/02 09:01:12;;;;;;;9.57;1.52;;;;;;;;;;5068148;28;20048;-65
2022/11/02 09:03:38;;;;;;;10.88;1.63;;;;;;;;;;5067257;28;20029;-65
2022/11/02 09:06:04;;;;;;;10.07;1.83;;;;;;;;;;5068952;28;20112;-65
2022/11/02 09:08:31;;;;;;;8.25;1.48;;;;;;;;;;5070899;28;20086;-65
2022/11/02 09:11:01;;;;;;;7.05;1.75;;;;;;;;;;5070501;28;20159;-65
2022/11/02 09:13:27;;;;;;;13.02;1.60;;;;;;;;;;5073019;28;20052;-65
2022/11/02 09:15:54;;;;;;;7.15;1.00;;;;;;;;;;5072553;28;20095;-65
2022/11/02 09:18:21;;;;;;;7.72;1.38;;;;;;;;;;5071376;28;20047;-65
2022/11/02 09:20:47;;;;;;;11.45;1.42;;;;;;;;;;5070749;28;20526;-65
2022/11/02 09:23:16;;;;;;;6.50;1.40;;;;;;;;;;5070027;28;20071;-65
2022/11/02 09:25:42;;;;;;;15.38;1.20;;;;;;;;;;5071784;28;20036;-65
2022/11/02 09:28:09;;;;;;;8.63;1.23;;;;;;;;;;5072533;28;20047;-65
2022/11/02 09:30:35;;;;;;;7.85;1.10;;;;;;;;;;5072850;28;20425;-65
2022/11/02 09:33:02;;;;;;;10.18;1.75;;;;;;;;;;5060917;28;20373;-65
2022/11/02 09:35:29;;;;;;;8.25;1.77;;;;;;;;;;5071251;28;20040;-65
2022/11/02 09:37:56;;;;;;;6.65;1.23;;;;;;;;;;5071822;28;20522;-65
2022/11/02 09:40:23;;;;;;;7.53;1.50;;;;;;;;;;5071605;28;20174;-65
2022/11/02 09:43:07;;;;;;;6.20;1.40;;;;;;;;;;5072343;28;20052;-65
2022/11/02 09:45:36;;;;;;;9.82;1.60;;;;;;;;;;5072830;28;20067;-65
2022/11/02 09:48:31;;;;;;;9.98;1.60;;;;;;;;;;5070873;28;20053;-65
2022/11/02 09:51:03;;;;;;;12.35;1.63;;;;;;;;;;5057939;28;20051;-65
2022/11/02 09:53:55;;;;;;;11.90;1.25;;;;;;;;;;5072534;28;20538;-65
2022/11/02 09:56:21;;;;;;;9.68;1.55;;;;;;;;;;5044364;28;20048;-65
2022/11/02 09:59:07;;;;;;;14.07;1.50;;;;;;;;;;5070284;28;20033;-65
2022/11/02 10:01:45;;;;;;;11.10;1.83;;;;;;;;;;5067813;28;20054;-65
2022/11/02 10:04:19;;;;;;;13.38;1.70;;;;;;;;;;5072191;28;20106;-65
2022/11/02 10:06:51;;;;;;;12.73;1.70;;;;;;;;;;5070779;28;20082;-65
2022/11/02 10:09:17;;;;;;;9.70;1.30;;;;;;;;;;5071663;28;20036;-65
2022/11/02 10:12:02;;;;;;;12.23;1.80;;;;;;;;;;5070749;28;20072;-65
2022/11/02 10:14:32;;;;;;;11.38;1.60;;;;;;;;;;5071625;28;20084;-65
2022/11/02 10:17:12;;;;;;;10.80;1.63;;;;;;;;;;5070318;28;20041;-65
2022/11/02 10:19:39;;;;;;;16.42;2.65;;;;;;;;;;5070006;28;20033;-65
2022/11/02 10:22:09;;;;;;;11.80;2.00;;;;;;;;;;5070674;28;20045;-65
2022/11/02 10:24:38;;;;;;;13.98;1.60;;;;;;;;;;5071400;28;20044;-65
2022/11/02 10:27:09;;;;;;;8.90;1.33;;;;;;;;;;5071138;28;20044;-65
2022/11/02 10:29:38;;;;;;;17.17;2.05;;;;;;;;;;5071523;28;20045;-65
2022/11/02 10:32:04;;;;;;;10.40;1.35;;;;;;;;;;5070607;28;20044;-65
2022/11/02 10:34:31;;;;;;;12.07;1.83;;;;;;;;;;5071632;28;20044;-65
2022/11/02 10:37:09;;;;;;;12.25;1.73;;;;;;;;;;5071553;28;20037;-65
2022/11/02 10:39:40;;;;;;;8.35;1.75;;;;;;;;;;5070474;28;20037;-65
2022/11/02 10:42:16;;;;;;;11.80;1.65;;;;;;;;;;5070135;28;20037;-65
2022/11/02 10:44:45;;;;;;;10.43;1.45;;;;;;;;;;5070303;28;20059;-65
2022/11/02 10:47:11;;;;;;;11.48;1.77;;;;;;;;;;5070409;28;20067;-65
2022/11/02 10:49:43;;;;;;;8.75;1.52;;;;;;;;;;5071046;28;20383;-65
2022/11/02 10:52:14;;;;;;;11.63;1.58;;;;;;;;;;5071316;28;20051;-65
2022/11/02 10:54:40;;;;;;;14.63;1.83;;;;;;;;;;5070725;28;20036;-65
2022/11/02 10:57:12;;;;;;;10.13;1.65;;;;;;;;;;5071086;28;20036;-65
2022/11/02 10:59:39;;;;;;;13.02;1.20;;;;;;;;;;5069662;28;20060;-65
2022/11/02 11:02:14;;;;;;;10.63;1.73;;;;;;;;;;5070903;28;20036;-65
2022/11/02 11:04:41;;;;;;;12.43;1.73;;;;;;;;;;5070894;28;20041;-65
2022/11/02 11:07:13;;;;;;;10.77;2.53;;;;;;;;;;5070531;28;20348;-65
2022/11/02 11:09:45;;;;;;;9.48;1.73;;;;;;;;;;5068327;28;20094;-65
2022/11/02 11:12:23;;;;;;;12.50;1.42;;;;;;;;;;5069186;28;20048;-65
2022/11/02 11:14:52;;;;;;;7.32;1.30;;;;;;;;;;5070696;28;20049;-65
2022/11/02 11:17:23;;;;;;;10.98;1.73;;;;;;;;;;5068573;28;20134;-65
2022/11/02 11:19:54;;;;;;;8.68;1.20;;;;;;;;;;5070232;28;20548;-65
2022/11/02 11:22:26;;;;;;;5.90;1.13;;;;;;;;;;5070829;28;20033;-65
2022/11/02 11:24:52;;;;;;;8.57;1.75;;;;;;;;;;5069906;28;20045;-65
2022/11/02 11:27:19;;;;;;;9.75;1.60;;;;;;;;;;5070006;28;20044;-65
2022/11/02 11:29:47;;;;;;;10.48;1.17;;;;;;;;;;5070070;28;20044;-65
2022/11/02 11:32:18;;;;;;;12.50;1.30;;;;;;;;;;5069495;28;20043;-65
2022/11/02 11:34:45;;;;;;;14.45;1.27;;;;;;;;;;5070943;28;20091;-65
2022/11/02 11:37:13;;;;;;;7.90;1.20;;;;;;;;;;5070978;28;20637;-65
2022/11/02 11:39:40;;;;;;;7.13;1.02;;;;;;;;;;5070317;28;20078;-65
2022/11/02 11:42:13;;;;;;;6.72;1.15;;;;;;;;;;5070782;28;20050;-65
2022/11/02 11:44:43;;;;;;;11.15;1.50;;;;;;;;;;5070419;28;20086;-65
2022/11/02 11:47:10;;;;;;;10.75;1.20;;;;;;;;;;5070133;28;20066;-66
2022/11/02 11:49:47;;;;;;;6.20;1.10;;;;;;;;;;5069172;28;20071;-66
2022/11/02 11:52:16;;;;;;;8.75;1.20;;;;;;;;;;5070669;28;20371;-66
2022/11/02 11:54:51;;;;;;;9.10;1.83;;;;;;;;;;5070339;28;20102;-66
2022/11/02 11:57:23;;;;;;;7.57;1.13;;;;;;;;;;5070749;28;20075;-66
2022/11/02 11:59:51;;;;;;;6.77;1.50;;;;;;;;;;5070516;28;20080;-66
2022/11/02 12:02:30;;;;;;;10.10;1.20;;;;;;;;;;5070322;28;20358;-66
2022/11/02 12:05:16;;;;;;;8.88;1.52;;;;;;;;;;5070435;28;20123;-66
2022/11/02 12:07:48;;;;;;;8.27;1.10;;;;;;;;;;5070076;28;20044;-66
2022/11/02 12:10:16;;;;;;;9.98;1.50;;;;;;;;;;5070397;28;20039;-66
2022/11/02 12:12:49;;;;;;;8.63;1.58;;;;;;;;;;5070314;28;20051;-66
2022/11/02 12:15:29;;;;;;;6.60;1.70;;;;;;;;;;5070158;28;20041;-66
2022/11/02 12:18:14;;;;;;;8.75;1.17;;;;;;;;;;5070693;28;20041;-66
2022/11/02 12:20:59;;;;;;;6.43;1.23;;;;;;;;;;5070489;28;20044;-66
2022/11/02 12:23:48;;;;;;;9.95;1.30;;;;;;;;;;5070003;28;20043;-66
2022/11/02 12:26:18;;;;;;;8.20;1.50;;;;;;;;;;5067134;28;20048;-66
2022/11/02 12:28:56;;;;;;;12.73;1.67;;;;;;;;;;5068957;28;20046;-66
2022/11/02 12:31:37;;;;;;;21.80;2.17;;;;;;;;;;5069819;28;20037;-66
2022/11/02 12:34:04;;;;;;;6.03;1.65;;;;;;;;;;5070065;28;20055;-66
2022/11/02 12:36:48;;;;;;;12.73;1.73;;;;;;;;;;5070421;28;20036;-66
2022/11/02 12:39:21;;;;;;;9.52;1.33;;;;;;;;;;5068190;28;20044;-66
2022/11/02 12:41:47;;;;;;;;;;;;;;;;;;5070708;28;20398;-66
2022/11/02 12:44:18;;;;;;;8.18;1.30;;;;;;;;;;5073618;28;19920;-66
2022/11/02 12:46:44;;;;;;;10.82;1.48;;;;;;;;;;5073915;28;20148;-66
2022/11/02 12:49:29;;;;;;;8.88;1.50;;;;;;;;;;5073973;28;20045;-66
2022/11/02 12:52:06;;;;;;;10.07;1.23;;;;;;;;;;5073468;28;20066;-66
2022/11/02 12:54:39;;;;;;;9.25;1.10;;;;;;;;;;5074115;28;20101;-66
2022/11/02 12:57:07;;;;;;;12.63;1.58;;;;;;;;;;5073633;28;20040;-66
2022/11/02 12:59:33;;;;;;;8.73;1.30;;;;;;;;;;5073429;28;20482;-66
2022/11/02 13:02:04;;;;;;;8.70;1.55;;;;;;;;;;5071248;28;20032;-66
2022/11/02 13:04:44;;;;;;;9.40;1.42;;;;;;;;;;5073821;28;20700;-66
2022/11/02 13:07:14;;;;;;;12.75;2.50;;;;;;;;;;5073366;28;20071;-66
2022/11/02 13:09:49;;;;;;;9.80;1.65;;;;;;;;;;5071998;28;20036;-66
2022/11/02 13:12:17;;;;;;;7.95;1.10;;;;;;;;;;5056057;28;20098;-66
2022/11/02 13:14:45;;;;;;;6.15;1.20;;;;;;;;;;5072712;28;20064;-67
2022/11/02 13:17:15;;;;;;;6.93;1.20;;;;;;;;;;5073173;28;20082;-66
2022/11/02 13:20:05;;;;;;;10.00;1.88;;;;;;;;;;5071756;28;20066;-67
2022/11/02 13:22:36;;;;;;;14.40;1.50;;;;;;;;;;5049666;28;20053;-66
2022/11/02 13:25:26;;;;;;;7.20;1.33;;;;;;;;;;5060700;28;20048;-66
2022/11/02 13:27:57;;;;;;;12.43;1.98;;;;;;;;;;5069788;28;20048;-66
2022/11/02 13:30:23;;;;;;;6.50;1.35;;;;;;;;;;5067910;28;20043;-66
2022/11/02 13:32:54;;;;;;;7.38;1.20;;;;;;;;;;5071222;28;20068;-67
2022/11/02 13:35:40;;;;;;;9.48;1.30;;;;;;;;;;5072938;28;20392;-67
2022/11/02 13:38:13;;;;;;;7.80;1.33;;;;;;;;;;5071834;28;20532;-66
2022/11/02 13:40:42;;;;;;;7.68;1.30;;;;;;;;;;5072886;28;20040;-67
2022/11/02 13:43:26;;;;;;;13.75;1.63;;;;;;;;;;5072094;28;20045;-67
2022/11/02 13:46:11;;;;;;;8.25;1.50;;;;;;;;;;5071997;28;20051;-67
2022/11/02 13:48:40;;;;;;;10.63;1.55;;;;;;;;;;5072527;28;20119;-67
2022/11/02 13:51:12;;;;;;;13.10;1.70;;;;;;;;;;5069660;28;20040;-66
2022/11/02 13:53:38;;;;;;;;;;;;;;;;;;5072046;28;20036;-66
2022/11/02 13:56:09;;;;;;;7.85;1.75;;;;;;;;;;5068694;28;20368;-66
2022/11/02 13:58:43;;;;;;;8.30;1.60;;;;;;;;;;5070030;28;20054;-66
2022/11/02 14:01:10;;;;;;;7.65;1.30;;;;;;;;;;5070061;28;20047;-67
2022/11/02 14:03:42;;;;;;;5.78;1.50;;;;;;;;;;5060393;28;20063;-67
2022/11/02 14:06:10;;;;;;;11.90;1.60;;;;;;;;;;5068461;28;20033;-67
2022/11/02 14:08:38;;;;;;;12.25;2.13;;;;;;;;;;5070422;28;20056;-67
2022/11/02 14:11:22;;;;;;;7.07;1.92;;;;;;;;;;5068675;28;20414;-67
2022/11/02 14:13:51;;;;;;;6.53;1.42;;;;;;;;;;5067944;28;20463;-66
2022/11/02 14:16:36;;;;;;;11.80;1.50;;;;;;;;;;5070697;28;20040;-66
2022/11/02 14:19:25;;;;;;;11.80;1.70;;;;;;;;;;5071156;28;20075;-66
2022/11/02 14:21:52;;;;;;;11.13;1.55;;;;;;;;;;5053778;28;20507;-66
2022/11/02 14:24:33;;;;;;;12.48;1.88;;;;;;;;;;5071542;28;20126;-66
2022/11/02 14:27:00;;;;;;;10.30;2.00;;;;;;;;;;5069707;28;20055;-66
2022/11/02 14:29:43;;;;;;;12.05;1.80;;;;;;;;;;5071172;28;20036;-66
2022/11/02 14:32:18;;;;;;;10.25;1.60;;;;;;;;;;5069497;28;20709;-66
2022/11/02 14:34:50;;;;;;;13.55;2.03;;;;;;;;;;5068653;28;20036;-66
2022/11/02 14:37:43;;;;;;;12.73;1.48;;;;;;;;;;5070454;28;20115;-66
2022/11/02 14:40:09;;;;;;;9.93;1.77;;;;;;;;;;5069945;28;20048;-66
2022/11/02 14:42:44;;;;;;;11.55;1.67;;;;;;;;;;5071402;28;20044;-66
2022/11/02 14:45:10;;;;;;;17.20;1.75;;;;;;;;;;5071141;28;20043;-66
2022/11/02 14:47:38;;;;;;;8.45;2.05;;;;;;;;;;5071682;28;20450;-66
2022/11/02 14:50:11;;;;;;;9.00;1.88;;;;;;;;;;5071368;28;20048;-66
2022/11/02 14:52:37;;;;;;;13.48;2.00;;;;;;;;;;5071001;28;20507;-66
2022/11/02 14:55:18;;;;;;;9.80;1.50;;;;;;;;;;5071729;28;20083;-66
2022/11/02 14:58:00;;;;;;;6.28;1.27;;;;;;;;;;5051333;28;20036;-66
2022/11/02 15:00:45;;;;;;;8.20;1.50;;;;;;;;;;5051251;28;20063;-66
2022/11/02 15:03:25;;;;;;;13.02;1.63;;;;;;;;;;5055804;28;20040;-66
2022/11/02 15:06:09;;;;;;;8.23;1.65;;;;;;;;;;5050013;28;20045;-66